createdAt,value
2018-09-08T00:01:29.762Z,9.20
2018-09-08T00:06:28.271Z,7.30
2018-09-08T00:11:21.334Z,7.03
2018-09-08T00:16:19.547Z,10.90
2018-09-08T00:21:17.889Z,12.50
2018-09-08T00:26:16.346Z,10.80
2018-09-08T00:31:12.806Z,6.03
2018-09-08T00:36:05.379Z,6.83
2018-09-08T00:40:57.977Z,8.57
2018-09-08T00:45:50.636Z,5.53
2018-09-08T00:50:43.239Z,6.30
2018-09-08T00:55:35.843Z,10.23
2018-09-08T01:00:28.434Z,4.73
2018-09-08T01:05:21.205Z,5.00
2018-09-08T01:10:13.887Z,10.07
2018-09-08T01:15:06.946Z,6.50
2018-09-08T01:19:59.523Z,5.00
2018-09-08T01:24:52.120Z,6.17
2018-09-08T01:29:44.661Z,4.03
2018-09-08T01:34:37.253Z,5.40
2018-09-08T01:39:29.823Z,4.10
2018-09-08T01:44:22.379Z,3.47
2018-09-08T01:49:14.941Z,5.03
2018-09-08T01:54:07.888Z,4.37
2018-09-08T01:59:00.470Z,3.77
2018-09-08T02:03:53.065Z,4.37
2018-09-08T02:08:45.644Z,3.90
2018-09-08T02:13:38.290Z,4.03
2018-09-08T02:18:30.894Z,4.77
2018-09-08T02:23:23.612Z,4.27
2018-09-08T02:28:16.132Z,4.33
2018-09-08T02:33:08.723Z,5.03
2018-09-08T02:38:01.277Z,6.20
2018-09-08T02:42:53.855Z,4.30
2018-09-08T02:47:46.430Z,5.07
2018-09-08T02:52:37.755Z,4.70
2018-09-08T02:57:29.063Z,4.30
2018-09-08T03:02:20.387Z,3.93
2018-09-08T03:07:13.055Z,5.20
2018-09-08T03:12:04.384Z,5.70
2018-09-08T03:16:55.671Z,7.60
2018-09-08T03:21:47.046Z,6.33
2018-09-08T03:26:38.370Z,5.37
2018-09-08T03:31:29.716Z,8.87
2018-09-08T03:36:21.062Z,6.47
2018-09-08T03:41:12.409Z,6.17
2018-09-08T03:46:03.905Z,7.13
2018-09-08T03:50:55.219Z,18.87
2018-09-08T03:55:46.567Z,11.27
2018-09-08T04:00:37.890Z,9.30
2018-09-08T04:05:30.585Z,14.53
2018-09-08T04:10:23.322Z,12.67
2018-09-08T04:15:15.912Z,7.23
2018-09-08T04:20:08.542Z,9.00
2018-09-08T04:25:01.492Z,10.50
2018-09-08T04:29:54.279Z,5.60
2018-09-08T04:34:46.860Z,14.07
2018-09-08T04:39:39.499Z,6.93
2018-09-08T04:44:32.062Z,5.30
2018-09-08T04:49:24.702Z,6.87
2018-09-08T04:54:17.405Z,6.67
2018-09-08T04:59:09.958Z,4.57
2018-09-08T05:04:02.519Z,7.13
2018-09-08T05:08:55.170Z,8.47
2018-09-08T05:13:47.769Z,6.43
2018-09-08T05:18:40.377Z,6.37
2018-09-08T05:23:33.037Z,8.77
2018-09-08T05:28:25.687Z,8.37
2018-09-08T05:33:18.213Z,8.40
2018-09-08T05:38:10.778Z,5.60
2018-09-08T05:43:03.455Z,6.60
2018-09-08T05:47:56.054Z,6.90
2018-09-08T05:52:48.620Z,5.47
2018-09-08T05:57:41.194Z,7.23
2018-09-08T06:02:33.825Z,5.83
2018-09-08T06:07:26.543Z,6.70
2018-09-08T06:12:19.167Z,5.43
2018-09-08T06:17:11.774Z,5.47
2018-09-08T06:22:04.338Z,4.87
2018-09-08T06:26:57.027Z,8.93
2018-09-08T06:31:49.658Z,4.40
2018-09-08T06:36:42.547Z,6.17
2018-09-08T06:41:35.106Z,4.93
2018-09-08T06:46:27.650Z,5.37
2018-09-08T06:51:20.241Z,5.90
2018-09-08T06:56:12.767Z,8.20
2018-09-08T07:01:05.499Z,5.53
2018-09-08T07:05:58.215Z,4.47
2018-09-08T07:10:50.824Z,7.13
2018-09-08T07:15:43.496Z,4.10
2018-09-08T07:20:36.175Z,4.57
2018-09-08T07:25:28.812Z,5.97
2018-09-08T07:30:21.352Z,6.97
2018-09-08T07:35:13.967Z,3.17
2018-09-08T07:40:06.517Z,2.50
2018-09-08T07:44:59.272Z,5.23
2018-09-08T07:49:52.918Z,4.63
2018-09-08T07:54:45.517Z,5.63
2018-09-08T07:59:38.257Z,2.73
2018-09-08T08:04:30.863Z,3.73
2018-09-08T08:09:23.526Z,4.30
2018-09-08T08:14:16.114Z,4.60
2018-09-08T08:19:09.058Z,4.67
2018-09-08T08:24:01.724Z,5.33
2018-09-08T08:28:54.310Z,3.50
2018-09-08T08:33:46.905Z,3.43
2018-09-08T08:38:39.729Z,7.87
2018-09-08T08:43:32.499Z,4.13
2018-09-08T08:48:25.108Z,5.70
2018-09-08T08:53:35.458Z,6.67
2018-09-08T08:58:28.015Z,3.63
2018-09-08T09:03:20.642Z,4.53
2018-09-08T09:08:13.255Z,12.27
2018-09-08T09:13:05.938Z,6.70
2018-09-08T09:17:58.691Z,5.77
2018-09-08T09:23:08.911Z,9.47
2018-09-08T09:28:01.547Z,7.10
2018-09-08T09:32:54.332Z,5.73
2018-09-08T09:37:46.911Z,8.20
2018-09-08T09:42:39.581Z,4.93
2018-09-08T09:47:32.406Z,7.63
2018-09-08T09:52:25.049Z,8.67
2018-09-08T09:57:17.754Z,8.33
2018-09-08T10:02:44.343Z,3.93
2018-09-08T10:07:36.954Z,3.37
2018-09-08T10:12:29.611Z,5.13
2018-09-08T10:17:22.260Z,2.63
2018-09-08T10:22:14.871Z,4.70
2018-09-08T10:27:07.459Z,5.70
2018-09-08T10:32:00.103Z,3.43
2018-09-08T10:36:53.066Z,5.93
2018-09-08T10:41:45.681Z,6.03
2018-09-08T10:46:38.368Z,4.53
2018-09-08T10:53:40.340Z,2.63
2018-09-08T10:58:32.918Z,4.97
2018-09-08T11:03:25.499Z,3.43
2018-09-08T11:08:18.092Z,4.50
2018-09-08T11:13:10.676Z,5.90
2018-09-08T11:18:03.288Z,3.23
2018-09-08T11:22:55.994Z,4.33
2018-09-08T11:27:48.592Z,4.57
2018-09-08T11:32:41.240Z,2.83
2018-09-08T11:37:33.851Z,3.40
2018-09-08T11:42:26.517Z,6.67
2018-09-08T11:47:19.056Z,3.73
2018-09-08T11:52:11.627Z,3.63
2018-09-08T11:57:04.403Z,2.67
2018-09-08T12:01:57.094Z,3.20
2018-09-08T12:06:49.647Z,4.17
2018-09-08T12:11:42.289Z,4.07
2018-09-08T12:16:34.889Z,2.43
2018-09-08T12:21:27.571Z,5.57
2018-09-08T12:26:20.155Z,3.03
2018-09-08T12:31:12.766Z,1.97
2018-09-08T12:36:06.136Z,1.50
2018-09-08T12:40:58.759Z,2.40
2018-09-08T12:45:51.355Z,1.97
2018-09-08T12:50:43.869Z,1.63
2018-09-08T12:55:36.483Z,2.30
2018-09-08T13:00:29.166Z,2.13
2018-09-08T13:05:21.683Z,1.50
2018-09-08T13:10:14.255Z,2.03
2018-09-08T13:15:06.936Z,2.40
2018-09-08T13:20:00.007Z,1.53
2018-09-08T13:24:53.007Z,2.07
2018-09-08T13:29:45.608Z,4.03
2018-09-08T13:34:38.449Z,2.97
2018-09-08T13:39:31.017Z,2.57
2018-09-08T13:44:23.618Z,1.50
2018-09-08T13:49:16.226Z,1.57
2018-09-08T13:54:09.058Z,1.40
2018-09-08T13:59:02.042Z,1.73
2018-09-08T14:03:54.672Z,5.83
2018-09-08T14:08:47.234Z,2.30
2018-09-08T14:13:39.908Z,1.50
2018-09-08T14:18:32.592Z,6.27
2018-09-08T14:23:25.402Z,1.83
2018-09-08T14:28:17.940Z,1.93
2018-09-08T14:33:10.658Z,3.17
2018-09-08T14:38:03.245Z,5.17
2018-09-08T14:42:56.051Z,2.80
2018-09-08T14:47:48.583Z,1.47
2018-09-08T14:52:41.235Z,2.43
2018-09-08T14:57:33.868Z,3.33
2018-09-08T15:02:26.470Z,2.77
2018-09-08T15:07:19.126Z,3.97
2018-09-08T15:12:11.711Z,1.70
2018-09-08T15:17:04.780Z,4.83
2018-09-08T15:21:57.413Z,5.03
2018-09-08T15:26:49.974Z,2.93
2018-09-08T15:31:42.550Z,3.43
2018-09-08T15:36:35.155Z,2.33
2018-09-08T15:41:27.712Z,4.37
2018-09-08T15:46:20.367Z,4.13
2018-09-08T15:51:13.024Z,2.43
2018-09-08T15:56:05.559Z,3.13
2018-09-08T16:00:58.183Z,4.60
2018-09-08T16:05:50.793Z,3.10
2018-09-08T16:10:43.414Z,4.40
2018-09-08T16:15:36.282Z,10.53
2018-09-08T16:20:28.957Z,3.57
2018-09-08T16:25:21.572Z,6.13
2018-09-08T16:30:14.128Z,3.40
2018-09-08T16:35:06.831Z,3.90
2018-09-08T16:39:59.439Z,3.43
2018-09-08T16:44:52.028Z,4.47
2018-09-08T16:49:44.551Z,4.87
2018-09-08T16:54:37.328Z,8.97
2018-09-08T16:59:30.135Z,7.17
2018-09-08T17:04:22.835Z,8.10
2018-09-08T17:09:15.511Z,3.50
2018-09-08T17:14:08.120Z,5.90
2018-09-08T17:19:00.769Z,3.60
2018-09-08T17:23:53.352Z,6.03
2018-09-08T17:28:46.015Z,6.73
2018-09-08T17:33:38.595Z,3.67
2018-09-08T17:38:31.151Z,3.83
2018-09-08T17:43:23.709Z,7.10
2018-09-08T17:48:16.282Z,9.23
2018-09-08T17:53:08.866Z,9.03
2018-09-08T17:58:01.463Z,6.73
2018-09-08T18:02:54.491Z,10.77
2018-09-08T18:07:47.059Z,5.93
2018-09-08T18:12:40.747Z,8.07
2018-09-08T18:17:33.367Z,5.63
2018-09-08T18:22:25.986Z,6.20
2018-09-08T18:27:18.583Z,9.83
2018-09-08T18:32:11.135Z,7.97
2018-09-08T18:37:03.822Z,6.73
2018-09-08T18:41:56.638Z,6.63
2018-09-08T18:46:49.155Z,11.83
2018-09-08T18:51:41.764Z,12.30
2018-09-08T18:56:34.355Z,12.27
2018-09-08T19:01:27.017Z,9.93
2018-09-08T19:06:36.861Z,11.10
2018-09-08T19:11:29.591Z,13.90
2018-09-08T19:16:22.247Z,16.53
2018-09-08T19:21:14.786Z,16.50
2018-09-08T19:26:07.472Z,14.47
2018-09-08T19:31:00.107Z,20.17
2018-09-08T19:35:52.774Z,12.60
2018-09-08T19:40:46.690Z,15.47
2018-09-08T19:45:39.495Z,15.90
2018-09-08T19:50:32.654Z,21.20
2018-09-08T19:55:25.249Z,18.40
2018-09-08T20:00:17.862Z,14.93
2018-09-08T20:05:10.351Z,16.63
2018-09-08T20:10:02.885Z,19.90
2018-09-08T20:14:55.428Z,19.77
2018-09-08T20:19:48.041Z,19.43
2018-09-08T20:24:40.620Z,23.27
2018-09-08T20:29:33.203Z,24.17
2018-09-08T20:34:26.151Z,19.50
2018-09-08T20:39:18.759Z,25.27
2018-09-08T20:44:11.332Z,25.73
2018-09-08T20:49:04.334Z,42.53
2018-09-08T20:53:56.833Z,50.50
2018-09-08T20:58:49.472Z,35.03
2018-09-08T21:03:42.113Z,29.40
2018-09-08T21:08:36.141Z,24.17
2018-09-08T21:13:28.687Z,25.00
2018-09-08T21:18:21.400Z,24.90
2018-09-08T21:23:13.994Z,25.13
2018-09-08T21:28:06.564Z,28.33
2018-09-08T21:32:59.215Z,18.70
2018-09-08T21:37:51.770Z,22.63
2018-09-08T21:42:44.338Z,19.07
2018-09-08T21:47:36.896Z,16.87
2018-09-08T21:52:29.468Z,18.40
2018-09-08T21:57:22.024Z,19.13
2018-09-08T22:02:14.679Z,17.50
2018-09-08T22:07:07.502Z,18.97
2018-09-08T22:12:00.464Z,16.33
2018-09-08T22:16:53.063Z,14.47
2018-09-08T22:21:45.660Z,17.10
2018-09-08T22:26:38.278Z,17.17
2018-09-08T22:31:31.195Z,13.80
2018-09-08T22:36:24.078Z,13.40
2018-09-08T22:41:16.671Z,15.17
2018-09-08T22:46:09.278Z,14.17
2018-09-08T22:51:01.839Z,13.53
2018-09-08T22:55:54.505Z,16.97
2018-09-08T23:00:47.107Z,23.03
2018-09-08T23:05:39.654Z,20.00
2018-09-08T23:10:32.678Z,16.67
2018-09-08T23:15:25.510Z,13.90
2018-09-08T23:20:21.280Z,13.10
2018-09-08T23:25:13.866Z,16.33
2018-09-08T23:30:06.782Z,14.90
2018-09-08T23:34:59.404Z,14.43
2018-09-08T23:39:51.975Z,14.27
2018-09-08T23:44:44.594Z,20.23
2018-09-08T23:49:37.271Z,13.90
2018-09-08T23:54:29.838Z,13.03
2018-09-08T23:59:22.687Z,13.80
